SWT183 GCXO-GCLP
Flight info
| Callsign | SWT183 |
|---|---|
| Flight time | 0h 22m |
| Altitude | 12000 |
| Route | LALTO |
| Aircraft | B752/M-SDE2E3FGHIJ3J4J7RWXY/LB1 |
Departure
| Time | 2026-04-21 21:09 |
|---|---|
| Airport | Tenerife Norte-Ciudad de La Laguna Airport (GCXO) |
Arrival
| Time | 2026-04-21 21:32 |
|---|---|
| Airport | Gran Canaria Airport (GCLP) |
| Time | Latitude | Longitude | Altitude | Speed | Heading |
|---|---|---|---|---|---|
| 2026-04-21 20:58 | 28.48574 | -16.34401 | 2047 ft | 0 kts | 21° |
| 2026-04-21 21:01 | 28.48567 | -16.34403 | 2048 ft | 2 kts | 21° |
| 2026-04-21 21:01 | 28.48554 | -16.34409 | 2049 ft | 2 kts | 22° |
| 2026-04-21 21:01 | 28.48540 | -16.34416 | 2050 ft | 2 kts | 22° |
| 2026-04-21 21:02 | 28.48526 | -16.34422 | 2051 ft | 2 kts | 22° |
| 2026-04-21 21:02 | 28.48512 | -16.34428 | 2052 ft | 2 kts | 22° |
| 2026-04-21 21:02 | 28.48497 | -16.34434 | 2053 ft | 2 kts | 21° |
| 2026-04-21 21:02 | 28.48487 | -16.34445 | 2054 ft | 2 kts | 64° |
| 2026-04-21 21:03 | 28.48484 | -16.34461 | 2055 ft | 2 kts | 99° |
| 2026-04-21 21:03 | 28.48486 | -16.34468 | 2056 ft | 1 kts | 114° |
| 2026-04-21 21:03 | 28.48487 | -16.34471 | 2056 ft | 0 kts | 112° |
| 2026-04-21 21:05 | 28.48471 | -16.34423 | 2053 ft | 14 kts | 111° |
| 2026-04-21 21:05 | 28.48414 | -16.34253 | 2042 ft | 31 kts | 111° |
| 2026-04-21 21:05 | 28.48324 | -16.33980 | 2028 ft | 39 kts | 110° |
| 2026-04-21 21:06 | 28.48227 | -16.33684 | 2026 ft | 39 kts | 110° |
| 2026-04-21 21:06 | 28.48130 | -16.33396 | 2024 ft | 39 kts | 111° |
| 2026-04-21 21:06 | 28.48033 | -16.33102 | 2017 ft | 40 kts | 110° |
| 2026-04-21 21:06 | 28.47956 | -16.32869 | 2007 ft | 31 kts | 111° |
| 2026-04-21 21:07 | 28.47893 | -16.32679 | 1995 ft | 24 kts | 110° |
| 2026-04-21 21:07 | 28.47804 | -16.32538 | 1984 ft | 16 kts | 141° |
| 2026-04-21 21:07 | 28.47742 | -16.32537 | 1986 ft | 3 kts | 233° |
| 2026-04-21 21:07 | 28.47742 | -16.32570 | 1989 ft | 6 kts | 289° |
| 2026-04-21 21:08 | 28.47743 | -16.32572 | 1989 ft | 0 kts | 289° |
| 2026-04-21 21:08 | 28.47751 | -16.32597 | 1991 ft | 15 kts | 290° |
| 2026-04-21 21:09 | 28.47869 | -16.32954 | 2017 ft | 82 kts | 290° |
| 2026-04-21 21:09 | 28.48150 | -16.33804 | 2033 ft | 147 kts | 291° |
| 2026-04-21 21:09 | 28.48556 | -16.34993 | 2430 ft | 171 kts | 291° |
| 2026-04-21 21:09 | 28.48970 | -16.36276 | 3206 ft | 179 kts | 290° |
| 2026-04-21 21:10 | 28.49405 | -16.37642 | 3862 ft | 194 kts | 291° |
| 2026-04-21 21:10 | 28.49886 | -16.39133 | 4469 ft | 214 kts | 290° |
| 2026-04-21 21:10 | 28.50422 | -16.40792 | 5171 ft | 231 kts | 290° |
| 2026-04-21 21:10 | 28.50993 | -16.42555 | 5908 ft | 248 kts | 290° |
| 2026-04-21 21:11 | 28.51798 | -16.44325 | 6587 ft | 265 kts | 311° |
| 2026-04-21 21:11 | 28.53322 | -16.45529 | 7486 ft | 275 kts | 340° |
| 2026-04-21 21:11 | 28.55228 | -16.45766 | 8433 ft | 285 kts | 6° |
| 2026-04-21 21:11 | 28.57120 | -16.45050 | 9302 ft | 295 kts | 24° |
| 2026-04-21 21:12 | 28.58886 | -16.43844 | 10188 ft | 303 kts | 41° |
| 2026-04-21 21:12 | 28.60207 | -16.41894 | 10791 ft | 321 kts | 63° |
| 2026-04-21 21:12 | 28.60929 | -16.39428 | 11249 ft | 342 kts | 82° |
| 2026-04-21 21:12 | 28.61105 | -16.36664 | 11650 ft | 362 kts | 89° |
| 2026-04-21 21:13 | 28.60909 | -16.33740 | 11992 ft | 377 kts | 102° |
| 2026-04-21 21:13 | 28.60056 | -16.30870 | 12016 ft | 391 kts | 117° |
| 2026-04-21 21:13 | 28.58573 | -16.28320 | 12009 ft | 388 kts | 131° |
| 2026-04-21 21:13 | 28.56827 | -16.25956 | 12003 ft | 388 kts | 128° |
| 2026-04-21 21:14 | 28.55212 | -16.23476 | 12115 ft | 396 kts | 126° |
| 2026-04-21 21:14 | 28.53632 | -16.20941 | 12914 ft | 395 kts | 125° |
| 2026-04-21 21:14 | 28.52039 | -16.18311 | 13006 ft | 409 kts | 124° |
| 2026-04-21 21:14 | 28.50446 | -16.15631 | 13001 ft | 408 kts | 124° |
| 2026-04-21 21:15 | 28.48864 | -16.12947 | 13000 ft | 411 kts | 124° |
| 2026-04-21 21:15 | 28.47280 | -16.10248 | 12993 ft | 409 kts | 123° |
| 2026-04-21 21:15 | 28.45724 | -16.07590 | 12991 ft | 410 kts | 123° |
| 2026-04-21 21:15 | 28.44132 | -16.04866 | 12993 ft | 411 kts | 123° |
| 2026-04-21 21:16 | 28.42566 | -16.02188 | 12986 ft | 409 kts | 123° |
| 2026-04-21 21:16 | 28.40997 | -15.99504 | 12987 ft | 409 kts | 123° |
| 2026-04-21 21:16 | 28.39415 | -15.96799 | 12989 ft | 409 kts | 123° |
| 2026-04-21 21:16 | 28.37845 | -15.94115 | 12988 ft | 410 kts | 123° |
| 2026-04-21 21:17 | 28.36260 | -15.91407 | 12986 ft | 409 kts | 123° |
| 2026-04-21 21:17 | 28.34692 | -15.88732 | 12990 ft | 411 kts | 123° |
| 2026-04-21 21:17 | 28.33099 | -15.86014 | 12988 ft | 410 kts | 123° |
| 2026-04-21 21:17 | 28.31528 | -15.83335 | 12989 ft | 411 kts | 123° |
| 2026-04-21 21:18 | 28.29953 | -15.80651 | 12988 ft | 410 kts | 123° |
| 2026-04-21 21:18 | 28.28355 | -15.77930 | 12987 ft | 411 kts | 123° |
| 2026-04-21 21:18 | 28.26781 | -15.75252 | 12991 ft | 412 kts | 123° |
| 2026-04-21 21:18 | 28.25188 | -15.72543 | 12989 ft | 410 kts | 123° |
| 2026-04-21 21:19 | 28.23609 | -15.69859 | 12992 ft | 410 kts | 123° |
| 2026-04-21 21:19 | 28.22007 | -15.67137 | 12994 ft | 409 kts | 123° |
| 2026-04-21 21:19 | 28.20428 | -15.64457 | 12995 ft | 410 kts | 123° |
| 2026-04-21 21:19 | 28.18843 | -15.61769 | 12997 ft | 411 kts | 123° |
| 2026-04-21 21:20 | 28.17275 | -15.59111 | 12875 ft | 403 kts | 123° |
| 2026-04-21 21:20 | 28.15729 | -15.56489 | 11814 ft | 407 kts | 124° |
| 2026-04-21 21:20 | 28.14157 | -15.53825 | 11228 ft | 398 kts | 124° |
| 2026-04-21 21:20 | 28.12635 | -15.51249 | 10418 ft | 396 kts | 124° |
| 2026-04-21 21:21 | 28.11116 | -15.48678 | 9950 ft | 377 kts | 124° |
| 2026-04-21 21:21 | 28.09753 | -15.46368 | 9945 ft | 331 kts | 125° |
| 2026-04-21 21:21 | 28.08553 | -15.44335 | 9994 ft | 297 kts | 125° |
| 2026-04-21 21:21 | 28.07461 | -15.42487 | 10005 ft | 270 kts | 125° |
| 2026-04-21 21:22 | 28.06405 | -15.40695 | 9559 ft | 275 kts | 125° |
| 2026-04-21 21:22 | 28.05362 | -15.38918 | 9425 ft | 265 kts | 125° |
| 2026-04-21 21:22 | 28.04355 | -15.37210 | 9186 ft | 260 kts | 125° |
| 2026-04-21 21:22 | 28.03370 | -15.35543 | 9083 ft | 251 kts | 125° |
| 2026-04-21 21:23 | 28.02344 | -15.33968 | 8783 ft | 250 kts | 136° |
| 2026-04-21 21:23 | 28.01021 | -15.32707 | 8491 ft | 246 kts | 145° |
| 2026-04-21 21:23 | 27.99642 | -15.31584 | 8160 ft | 244 kts | 146° |
| 2026-04-21 21:23 | 27.98257 | -15.30459 | 7756 ft | 244 kts | 146° |
| 2026-04-21 21:24 | 27.96887 | -15.29343 | 7340 ft | 242 kts | 146° |
| 2026-04-21 21:24 | 27.95463 | -15.28362 | 6885 ft | 239 kts | 164° |
| 2026-04-21 21:24 | 27.93836 | -15.28227 | 6398 ft | 234 kts | 195° |
| 2026-04-21 21:24 | 27.92331 | -15.28792 | 6043 ft | 224 kts | 205° |
| 2026-04-21 21:25 | 27.90887 | -15.29499 | 5484 ft | 227 kts | 205° |
| 2026-04-21 21:25 | 27.89464 | -15.30193 | 5227 ft | 223 kts | 205° |
| 2026-04-21 21:25 | 27.88031 | -15.30894 | 4862 ft | 226 kts | 205° |
| 2026-04-21 21:25 | 27.86602 | -15.31591 | 4770 ft | 214 kts | 205° |
| 2026-04-21 21:26 | 27.85283 | -15.32235 | 4727 ft | 202 kts | 205° |
| 2026-04-21 21:26 | 27.84006 | -15.32892 | 4481 ft | 201 kts | 208° |
| 2026-04-21 21:26 | 27.82733 | -15.33547 | 4228 ft | 201 kts | 202° |
| 2026-04-21 21:26 | 27.81463 | -15.34146 | 4090 ft | 191 kts | 215° |
| 2026-04-21 21:27 | 27.80640 | -15.35237 | 3905 ft | 176 kts | 256° |
| 2026-04-21 21:27 | 27.80618 | -15.36548 | 3507 ft | 166 kts | 285° |
| 2026-04-21 21:27 | 27.80877 | -15.37795 | 3100 ft | 160 kts | 287° |
| 2026-04-21 21:27 | 27.81106 | -15.38969 | 2779 ft | 149 kts | 287° |
| 2026-04-21 21:28 | 27.81547 | -15.39957 | 2432 ft | 133 kts | 320° |
| 2026-04-21 21:28 | 27.82211 | -15.40623 | 2071 ft | 130 kts | 324° |
| 2026-04-21 21:28 | 27.83556 | -15.41892 | 1414 ft | 120 kts | 332° |
| 2026-04-21 21:29 | 27.84382 | -15.42245 | 1312 ft | 130 kts | 355° |
| 2026-04-21 21:29 | 27.85254 | -15.42158 | 1255 ft | 122 kts | 17° |
| 2026-04-21 21:29 | 27.86048 | -15.41787 | 1204 ft | 124 kts | 22° |
| 2026-04-21 21:29 | 27.86856 | -15.41425 | 1175 ft | 125 kts | 20° |
| 2026-04-21 21:30 | 27.87672 | -15.41076 | 1023 ft | 125 kts | 19° |
| 2026-04-21 21:30 | 27.88488 | -15.40719 | 842 ft | 127 kts | 21° |
| 2026-04-21 21:30 | 27.89315 | -15.40353 | 685 ft | 126 kts | 19° |
| 2026-04-21 21:30 | 27.90131 | -15.39999 | 508 ft | 126 kts | 20° |
| 2026-04-21 21:31 | 27.90961 | -15.39640 | 328 ft | 126 kts | 21° |
| 2026-04-21 21:31 | 27.91776 | -15.39280 | 172 ft | 127 kts | 20° |
| 2026-04-21 21:31 | 27.92596 | -15.38920 | 93 ft | 119 kts | 21° |
| 2026-04-21 21:31 | 27.93174 | -15.38665 | 84 ft | 62 kts | 21° |
| 2026-04-21 21:32 | 27.93530 | -15.38508 | 86 ft | 42 kts | 21° |
| 2026-04-21 21:32 | 27.93779 | -15.38424 | 87 ft | 29 kts | 4° |
| 2026-04-21 21:32 | 27.93967 | -15.38440 | 92 ft | 19 kts | 352° |
| 2026-04-21 21:32 | 27.94066 | -15.38530 | 99 ft | 21 kts | 290° |
| 2026-04-21 21:33 | 27.94025 | -15.38648 | 108 ft | 19 kts | 202° |
| 2026-04-21 21:33 | 27.93874 | -15.38716 | 111 ft | 26 kts | 202° |
| 2026-04-21 21:33 | 27.93705 | -15.38790 | 115 ft | 25 kts | 202° |
| 2026-04-21 21:33 | 27.93536 | -15.38861 | 113 ft | 26 kts | 198° |
| 2026-04-21 21:34 | 27.93364 | -15.38932 | 110 ft | 23 kts | 201° |
| 2026-04-21 21:34 | 27.93298 | -15.38969 | 110 ft | 6 kts | 239° |
| 2026-04-21 21:34 | 27.93303 | -15.39009 | 113 ft | 5 kts | 291° |
| 2026-04-21 21:34 | 27.93315 | -15.39045 | 116 ft | 3 kts | 290° |
| 2026-04-21 21:35 | 27.93316 | -15.39050 | 116 ft | 0 kts | 290° |